sensor_id;sensor_type;location;lat;lon;timestamp;P1;durP1;ratioP1;P2;durP2;ratioP2
8474;SDS011;4274;52.012;8.448;2024-02-15T00:00:21;60.13;;;17.17;;
8474;SDS011;4274;52.012;8.448;2024-02-15T00:02:47;60.97;;;17.57;;
8474;SDS011;4274;52.012;8.448;2024-02-15T00:05:13;57.90;;;16.00;;
8474;SDS011;4274;52.012;8.448;2024-02-15T00:07:42;63.10;;;16.37;;
8474;SDS011;4274;52.012;8.448;2024-02-15T00:10:09;61.77;;;16.63;;
8474;SDS011;4274;52.012;8.448;2024-02-15T00:12:34;62.27;;;15.63;;
8474;SDS011;4274;52.012;8.448;2024-02-15T00:15:00;60.93;;;16.27;;
8474;SDS011;4274;52.012;8.448;2024-02-15T00:17:27;58.23;;;15.67;;
8474;SDS011;4274;52.012;8.448;2024-02-15T00:19:54;61.53;;;17.03;;
8474;SDS011;4274;52.012;8.448;2024-02-15T00:22:20;68.90;;;18.83;;
8474;SDS011;4274;52.012;8.448;2024-02-15T00:24:46;62.67;;;18.30;;
8474;SDS011;4274;52.012;8.448;2024-02-15T00:27:13;60.40;;;16.17;;
8474;SDS011;4274;52.012;8.448;2024-02-15T00:29:42;61.27;;;16.40;;
8474;SDS011;4274;52.012;8.448;2024-02-15T00:32:08;60.67;;;15.93;;
8474;SDS011;4274;52.012;8.448;2024-02-15T00:34:35;67.30;;;17.37;;
8474;SDS011;4274;52.012;8.448;2024-02-15T00:37:03;67.67;;;16.90;;
8474;SDS011;4274;52.012;8.448;2024-02-15T00:39:32;62.90;;;16.97;;
8474;SDS011;4274;52.012;8.448;2024-02-15T00:41:58;61.60;;;17.43;;
8474;SDS011;4274;52.012;8.448;2024-02-15T00:44:25;61.70;;;17.43;;
8474;SDS011;4274;52.012;8.448;2024-02-15T00:46:51;67.23;;;18.07;;
8474;SDS011;4274;52.012;8.448;2024-02-15T00:49:17;62.30;;;16.90;;
8474;SDS011;4274;52.012;8.448;2024-02-15T00:51:45;64.93;;;17.77;;
8474;SDS011;4274;52.012;8.448;2024-02-15T00:54:11;63.00;;;18.47;;
8474;SDS011;4274;52.012;8.448;2024-02-15T00:56:37;65.13;;;19.10;;
8474;SDS011;4274;52.012;8.448;2024-02-15T00:59:02;66.50;;;17.17;;
8474;SDS011;4274;52.012;8.448;2024-02-15T01:01:28;66.67;;;17.17;;
8474;SDS011;4274;52.012;8.448;2024-02-15T01:03:54;65.73;;;17.70;;
8474;SDS011;4274;52.012;8.448;2024-02-15T01:06:20;63.33;;;17.13;;
8474;SDS011;4274;52.012;8.448;2024-02-15T01:08:46;67.37;;;19.53;;
8474;SDS011;4274;52.012;8.448;2024-02-15T01:11:11;64.20;;;17.00;;
8474;SDS011;4274;52.012;8.448;2024-02-15T01:13:38;66.90;;;18.67;;
8474;SDS011;4274;52.012;8.448;2024-02-15T01:16:04;67.07;;;20.27;;
8474;SDS011;4274;52.012;8.448;2024-02-15T01:18:30;72.80;;;19.43;;
8474;SDS011;4274;52.012;8.448;2024-02-15T01:20:56;69.30;;;19.40;;
8474;SDS011;4274;52.012;8.448;2024-02-15T01:23:22;79.80;;;21.47;;
8474;SDS011;4274;52.012;8.448;2024-02-15T01:25:48;75.70;;;20.63;;
8474;SDS011;4274;52.012;8.448;2024-02-15T01:28:14;68.07;;;19.93;;
8474;SDS011;4274;52.012;8.448;2024-02-15T01:30:40;65.97;;;18.60;;
8474;SDS011;4274;52.012;8.448;2024-02-15T01:33:08;74.53;;;21.50;;
8474;SDS011;4274;52.012;8.448;2024-02-15T01:35:36;65.47;;;18.77;;
8474;SDS011;4274;52.012;8.448;2024-02-15T01:38:02;68.83;;;20.07;;
8474;SDS011;4274;52.012;8.448;2024-02-15T01:40:28;65.77;;;18.87;;
8474;SDS011;4274;52.012;8.448;2024-02-15T01:42:53;69.90;;;18.97;;
8474;SDS011;4274;52.012;8.448;2024-02-15T01:45:20;68.73;;;18.77;;
8474;SDS011;4274;52.012;8.448;2024-02-15T01:47:46;70.30;;;19.70;;
8474;SDS011;4274;52.012;8.448;2024-02-15T01:50:13;71.83;;;20.60;;
8474;SDS011;4274;52.012;8.448;2024-02-15T01:52:40;75.03;;;17.90;;
8474;SDS011;4274;52.012;8.448;2024-02-15T01:55:08;68.27;;;18.40;;
8474;SDS011;4274;52.012;8.448;2024-02-15T01:57:35;67.47;;;18.70;;
8474;SDS011;4274;52.012;8.448;2024-02-15T02:00:03;67.70;;;18.77;;
8474;SDS011;4274;52.012;8.448;2024-02-15T02:02:30;66.23;;;18.27;;
8474;SDS011;4274;52.012;8.448;2024-02-15T02:04:58;66.90;;;20.40;;
8474;SDS011;4274;52.012;8.448;2024-02-15T02:07:24;69.60;;;20.40;;
8474;SDS011;4274;52.012;8.448;2024-02-15T02:09:49;66.93;;;18.97;;
8474;SDS011;4274;52.012;8.448;2024-02-15T02:12:15;65.40;;;18.40;;
8474;SDS011;4274;52.012;8.448;2024-02-15T02:14:43;71.80;;;18.67;;
8474;SDS011;4274;52.012;8.448;2024-02-15T02:17:15;72.00;;;20.17;;
8474;SDS011;4274;52.012;8.448;2024-02-15T02:19:41;68.03;;;19.47;;
8474;SDS011;4274;52.012;8.448;2024-02-15T02:22:08;71.50;;;19.50;;
8474;SDS011;4274;52.012;8.448;2024-02-15T02:24:36;66.30;;;19.87;;
8474;SDS011;4274;52.012;8.448;2024-02-15T02:27:28;76.27;;;19.60;;
8474;SDS011;4274;52.012;8.448;2024-02-15T02:29:55;69.27;;;19.60;;
8474;SDS011;4274;52.012;8.448;2024-02-15T02:32:22;68.23;;;19.50;;
8474;SDS011;4274;52.012;8.448;2024-02-15T02:34:48;66.13;;;19.63;;
8474;SDS011;4274;52.012;8.448;2024-02-15T02:37:13;74.57;;;20.50;;
8474;SDS011;4274;52.012;8.448;2024-02-15T02:39:39;71.37;;;19.93;;
8474;SDS011;4274;52.012;8.448;2024-02-15T02:42:06;66.27;;;19.10;;
8474;SDS011;4274;52.012;8.448;2024-02-15T02:44:32;69.70;;;19.70;;
8474;SDS011;4274;52.012;8.448;2024-02-15T02:46:57;76.43;;;20.57;;
8474;SDS011;4274;52.012;8.448;2024-02-15T02:49:23;70.00;;;20.00;;
8474;SDS011;4274;52.012;8.448;2024-02-15T02:51:49;68.33;;;19.40;;
8474;SDS011;4274;52.012;8.448;2024-02-15T02:54:14;75.03;;;20.93;;
8474;SDS011;4274;52.012;8.448;2024-02-15T02:56:40;74.47;;;20.33;;
8474;SDS011;4274;52.012;8.448;2024-02-15T02:59:08;74.57;;;20.83;;
8474;SDS011;4274;52.012;8.448;2024-02-15T03:01:34;74.97;;;21.07;;
8474;SDS011;4274;52.012;8.448;2024-02-15T03:04:00;76.77;;;21.40;;
8474;SDS011;4274;52.012;8.448;2024-02-15T03:06:26;72.83;;;20.63;;
8474;SDS011;4274;52.012;8.448;2024-02-15T03:08:52;78.77;;;20.70;;
8474;SDS011;4274;52.012;8.448;2024-02-15T03:11:19;75.10;;;22.10;;
8474;SDS011;4274;52.012;8.448;2024-02-15T03:13:45;79.47;;;23.80;;
8474;SDS011;4274;52.012;8.448;2024-02-15T03:16:10;84.10;;;23.63;;
8474;SDS011;4274;52.012;8.448;2024-02-15T03:18:36;80.63;;;23.77;;
8474;SDS011;4274;52.012;8.448;2024-02-15T03:21:02;82.87;;;23.00;;
8474;SDS011;4274;52.012;8.448;2024-02-15T03:23:29;79.47;;;21.70;;
8474;SDS011;4274;52.012;8.448;2024-02-15T03:25:55;79.67;;;22.37;;
8474;SDS011;4274;52.012;8.448;2024-02-15T03:28:21;86.07;;;22.90;;
8474;SDS011;4274;52.012;8.448;2024-02-15T03:30:48;79.87;;;23.20;;
8474;SDS011;4274;52.012;8.448;2024-02-15T03:33:15;81.47;;;25.70;;
8474;SDS011;4274;52.012;8.448;2024-02-15T03:35:40;83.87;;;25.10;;
8474;SDS011;4274;52.012;8.448;2024-02-15T03:38:06;92.93;;;24.70;;
8474;SDS011;4274;52.012;8.448;2024-02-15T03:40:32;78.50;;;23.70;;
8474;SDS011;4274;52.012;8.448;2024-02-15T03:42:58;88.73;;;24.37;;
8474;SDS011;4274;52.012;8.448;2024-02-15T03:45:24;77.83;;;23.73;;
8474;SDS011;4274;52.012;8.448;2024-02-15T03:47:53;77.20;;;22.47;;
8474;SDS011;4274;52.012;8.448;2024-02-15T03:50:19;80.30;;;22.23;;
8474;SDS011;4274;52.012;8.448;2024-02-15T03:52:46;85.87;;;23.80;;
8474;SDS011;4274;52.012;8.448;2024-02-15T03:55:12;82.83;;;24.37;;
8474;SDS011;4274;52.012;8.448;2024-02-15T03:57:38;81.87;;;23.47;;
8474;SDS011;4274;52.012;8.448;2024-02-15T04:00:11;78.17;;;23.80;;
8474;SDS011;4274;52.012;8.448;2024-02-15T04:02:39;85.57;;;23.87;;
8474;SDS011;4274;52.012;8.448;2024-02-15T04:05:06;83.70;;;24.30;;
8474;SDS011;4274;52.012;8.448;2024-02-15T04:07:32;75.57;;;22.60;;
8474;SDS011;4274;52.012;8.448;2024-02-15T04:09:58;88.90;;;23.23;;
8474;SDS011;4274;52.012;8.448;2024-02-15T04:12:25;88.90;;;23.63;;
8474;SDS011;4274;52.012;8.448;2024-02-15T04:14:51;88.73;;;22.67;;
8474;SDS011;4274;52.012;8.448;2024-02-15T04:17:17;81.73;;;22.70;;
8474;SDS011;4274;52.012;8.448;2024-02-15T04:19:46;84.80;;;24.60;;
8474;SDS011;4274;52.012;8.448;2024-02-15T04:22:13;85.43;;;22.23;;
8474;SDS011;4274;52.012;8.448;2024-02-15T04:24:41;82.47;;;22.10;;
8474;SDS011;4274;52.012;8.448;2024-02-15T04:27:10;79.63;;;21.80;;
8474;SDS011;4274;52.012;8.448;2024-02-15T04:29:39;87.83;;;22.80;;
8474;SDS011;4274;52.012;8.448;2024-02-15T04:32:09;92.07;;;24.50;;
8474;SDS011;4274;52.012;8.448;2024-02-15T04:34:39;80.23;;;21.30;;
8474;SDS011;4274;52.012;8.448;2024-02-15T04:37:05;80.90;;;22.00;;
8474;SDS011;4274;52.012;8.448;2024-02-15T04:39:34;83.40;;;22.00;;
8474;SDS011;4274;52.012;8.448;2024-02-15T04:42:01;86.00;;;20.33;;
8474;SDS011;4274;52.012;8.448;2024-02-15T04:44:26;83.77;;;24.00;;
8474;SDS011;4274;52.012;8.448;2024-02-15T04:46:52;76.40;;;23.23;;
8474;SDS011;4274;52.012;8.448;2024-02-15T04:49:19;79.87;;;20.80;;
8474;SDS011;4274;52.012;8.448;2024-02-15T04:51:45;81.20;;;22.37;;
8474;SDS011;4274;52.012;8.448;2024-02-15T04:54:12;79.87;;;22.57;;
8474;SDS011;4274;52.012;8.448;2024-02-15T04:56:38;83.30;;;24.10;;
8474;SDS011;4274;52.012;8.448;2024-02-15T04:59:05;75.87;;;20.60;;
8474;SDS011;4274;52.012;8.448;2024-02-15T05:01:33;77.80;;;21.83;;
8474;SDS011;4274;52.012;8.448;2024-02-15T05:04:00;87.70;;;20.70;;
8474;SDS011;4274;52.012;8.448;2024-02-15T05:06:29;86.73;;;21.70;;
8474;SDS011;4274;52.012;8.448;2024-02-15T05:08:55;82.87;;;21.20;;
8474;SDS011;4274;52.012;8.448;2024-02-15T05:11:22;73.67;;;20.00;;
8474;SDS011;4274;52.012;8.448;2024-02-15T05:13:48;74.73;;;19.60;;
8474;SDS011;4274;52.012;8.448;2024-02-15T05:16:15;74.40;;;18.67;;
8474;SDS011;4274;52.012;8.448;2024-02-15T05:18:41;77.90;;;19.30;;
8474;SDS011;4274;52.012;8.448;2024-02-15T05:21:06;68.20;;;19.30;;
8474;SDS011;4274;52.012;8.448;2024-02-15T05:23:35;67.27;;;17.20;;
8474;SDS011;4274;52.012;8.448;2024-02-15T05:26:02;83.23;;;18.57;;
8474;SDS011;4274;52.012;8.448;2024-02-15T05:28:28;73.03;;;19.10;;
8474;SDS011;4274;52.012;8.448;2024-02-15T05:31:10;77.78;;;19.55;;
8474;SDS011;4274;52.012;8.448;2024-02-15T05:33:43;70.70;;;18.17;;
8474;SDS011;4274;52.012;8.448;2024-02-15T05:36:10;70.40;;;17.70;;
8474;SDS011;4274;52.012;8.448;2024-02-15T05:38:36;70.03;;;16.77;;
8474;SDS011;4274;52.012;8.448;2024-02-15T05:41:02;72.00;;;16.20;;
8474;SDS011;4274;52.012;8.448;2024-02-15T05:43:28;75.40;;;18.47;;
8474;SDS011;4274;52.012;8.448;2024-02-15T05:45:54;68.47;;;18.07;;
8474;SDS011;4274;52.012;8.448;2024-02-15T05:48:20;77.83;;;18.40;;
8474;SDS011;4274;52.012;8.448;2024-02-15T05:50:46;68.60;;;17.80;;
8474;SDS011;4274;52.012;8.448;2024-02-15T05:53:12;74.03;;;18.17;;
8474;SDS011;4274;52.012;8.448;2024-02-15T05:55:38;74.47;;;18.50;;
8474;SDS011;4274;52.012;8.448;2024-02-15T05:58:06;70.73;;;17.60;;
8474;SDS011;4274;52.012;8.448;2024-02-15T06:00:34;56.80;;;14.67;;
8474;SDS011;4274;52.012;8.448;2024-02-15T06:03:00;63.67;;;16.90;;
8474;SDS011;4274;52.012;8.448;2024-02-15T06:05:27;71.30;;;15.90;;
8474;SDS011;4274;52.012;8.448;2024-02-15T06:07:53;70.60;;;15.20;;
8474;SDS011;4274;52.012;8.448;2024-02-15T06:10:18;63.70;;;15.50;;
8474;SDS011;4274;52.012;8.448;2024-02-15T06:12:44;63.10;;;16.00;;
8474;SDS011;4274;52.012;8.448;2024-02-15T06:15:09;65.33;;;15.00;;
8474;SDS011;4274;52.012;8.448;2024-02-15T06:17:40;64.17;;;14.13;;
8474;SDS011;4274;52.012;8.448;2024-02-15T06:20:09;62.77;;;15.00;;
8474;SDS011;4274;52.012;8.448;2024-02-15T06:22:38;56.97;;;13.63;;
8474;SDS011;4274;52.012;8.448;2024-02-15T06:25:04;64.33;;;14.53;;
8474;SDS011;4274;52.012;8.448;2024-02-15T06:27:30;63.63;;;14.23;;
8474;SDS011;4274;52.012;8.448;2024-02-15T06:29:57;60.70;;;13.73;;
8474;SDS011;4274;52.012;8.448;2024-02-15T06:32:42;65.07;;;13.30;;
8474;SDS011;4274;52.012;8.448;2024-02-15T06:35:27;57.00;;;13.47;;
8474;SDS011;4274;52.012;8.448;2024-02-15T06:38:11;56.30;;;12.43;;
8474;SDS011;4274;52.012;8.448;2024-02-15T06:40:55;58.73;;;13.67;;
8474;SDS011;4274;52.012;8.448;2024-02-15T06:43:20;62.03;;;13.50;;
8474;SDS011;4274;52.012;8.448;2024-02-15T06:45:46;56.07;;;12.70;;
8474;SDS011;4274;52.012;8.448;2024-02-15T06:48:12;60.60;;;13.33;;
8474;SDS011;4274;52.012;8.448;2024-02-15T06:50:38;57.57;;;12.80;;
8474;SDS011;4274;52.012;8.448;2024-02-15T06:53:04;56.47;;;12.60;;
8474;SDS011;4274;52.012;8.448;2024-02-15T06:55:30;66.70;;;12.67;;
8474;SDS011;4274;52.012;8.448;2024-02-15T06:57:56;56.53;;;12.20;;
8474;SDS011;4274;52.012;8.448;2024-02-15T07:00:21;57.73;;;11.73;;
8474;SDS011;4274;52.012;8.448;2024-02-15T07:02:47;51.67;;;11.87;;
8474;SDS011;4274;52.012;8.448;2024-02-15T07:05:14;54.63;;;12.03;;
8474;SDS011;4274;52.012;8.448;2024-02-15T07:07:42;59.27;;;11.83;;
8474;SDS011;4274;52.012;8.448;2024-02-15T07:10:08;53.57;;;11.43;;
8474;SDS011;4274;52.012;8.448;2024-02-15T07:12:35;61.43;;;12.67;;
8474;SDS011;4274;52.012;8.448;2024-02-15T07:15:01;62.07;;;11.97;;
8474;SDS011;4274;52.012;8.448;2024-02-15T07:17:28;53.47;;;11.00;;
8474;SDS011;4274;52.012;8.448;2024-02-15T07:19:54;57.70;;;12.27;;
8474;SDS011;4274;52.012;8.448;2024-02-15T07:22:20;63.40;;;12.43;;
8474;SDS011;4274;52.012;8.448;2024-02-15T07:24:47;53.03;;;11.10;;
8474;SDS011;4274;52.012;8.448;2024-02-15T07:27:12;55.47;;;11.17;;
8474;SDS011;4274;52.012;8.448;2024-02-15T07:29:38;62.23;;;11.40;;
8474;SDS011;4274;52.012;8.448;2024-02-15T07:32:04;56.83;;;11.73;;
8474;SDS011;4274;52.012;8.448;2024-02-15T07:34:31;56.83;;;11.10;;
8474;SDS011;4274;52.012;8.448;2024-02-15T07:36:57;53.40;;;10.97;;
8474;SDS011;4274;52.012;8.448;2024-02-15T07:39:24;52.63;;;11.63;;
8474;SDS011;4274;52.012;8.448;2024-02-15T07:41:53;54.97;;;11.57;;
8474;SDS011;4274;52.012;8.448;2024-02-15T07:44:23;54.00;;;10.60;;
8474;SDS011;4274;52.012;8.448;2024-02-15T07:46:49;58.00;;;12.23;;
8474;SDS011;4274;52.012;8.448;2024-02-15T07:49:15;52.67;;;11.33;;
8474;SDS011;4274;52.012;8.448;2024-02-15T07:51:42;48.70;;;10.17;;
8474;SDS011;4274;52.012;8.448;2024-02-15T07:54:08;51.53;;;10.40;;
8474;SDS011;4274;52.012;8.448;2024-02-15T07:56:35;57.87;;;11.10;;
8474;SDS011;4274;52.012;8.448;2024-02-15T07:59:00;56.93;;;9.87;;
8474;SDS011;4274;52.012;8.448;2024-02-15T08:01:26;56.73;;;11.30;;
8474;SDS011;4274;52.012;8.448;2024-02-15T08:03:52;50.63;;;9.87;;
8474;SDS011;4274;52.012;8.448;2024-02-15T08:06:18;52.07;;;9.97;;
8474;SDS011;4274;52.012;8.448;2024-02-15T08:08:44;56.93;;;10.10;;
8474;SDS011;4274;52.012;8.448;2024-02-15T08:11:11;53.40;;;10.23;;
8474;SDS011;4274;52.012;8.448;2024-02-15T08:13:50;58.20;;;10.37;;
8474;SDS011;4274;52.012;8.448;2024-02-15T08:16:19;52.77;;;10.00;;
8474;SDS011;4274;52.012;8.448;2024-02-15T08:18:52;55.43;;;10.17;;
8474;SDS011;4274;52.012;8.448;2024-02-15T08:21:24;58.00;;;10.37;;
8474;SDS011;4274;52.012;8.448;2024-02-15T08:23:54;53.37;;;8.87;;
8474;SDS011;4274;52.012;8.448;2024-02-15T08:26:23;51.43;;;9.90;;
8474;SDS011;4274;52.012;8.448;2024-02-15T08:28:49;57.47;;;9.93;;
8474;SDS011;4274;52.012;8.448;2024-02-15T08:31:15;49.97;;;9.03;;
8474;SDS011;4274;52.012;8.448;2024-02-15T08:33:41;49.60;;;8.30;;
8474;SDS011;4274;52.012;8.448;2024-02-15T08:36:11;49.47;;;9.00;;
8474;SDS011;4274;52.012;8.448;2024-02-15T08:38:38;47.13;;;8.13;;
8474;SDS011;4274;52.012;8.448;2024-02-15T08:41:04;52.17;;;9.50;;
8474;SDS011;4274;52.012;8.448;2024-02-15T08:43:32;49.30;;;8.90;;
8474;SDS011;4274;52.012;8.448;2024-02-15T08:45:58;58.80;;;9.10;;
8474;SDS011;4274;52.012;8.448;2024-02-15T08:48:24;51.87;;;8.60;;
8474;SDS011;4274;52.012;8.448;2024-02-15T08:50:50;50.47;;;9.00;;
8474;SDS011;4274;52.012;8.448;2024-02-15T08:53:16;47.27;;;8.57;;
8474;SDS011;4274;52.012;8.448;2024-02-15T08:55:44;50.87;;;9.00;;
8474;SDS011;4274;52.012;8.448;2024-02-15T08:58:10;51.33;;;9.40;;
8474;SDS011;4274;52.012;8.448;2024-02-15T09:00:36;52.77;;;7.90;;
8474;SDS011;4274;52.012;8.448;2024-02-15T09:03:09;46.17;;;8.70;;
8474;SDS011;4274;52.012;8.448;2024-02-15T09:05:39;52.33;;;9.20;;
8474;SDS011;4274;52.012;8.448;2024-02-15T09:08:08;49.50;;;9.17;;
8474;SDS011;4274;52.012;8.448;2024-02-15T09:10:34;52.63;;;9.03;;
8474;SDS011;4274;52.012;8.448;2024-02-15T09:13:01;46.03;;;8.20;;
8474;SDS011;4274;52.012;8.448;2024-02-15T09:15:27;48.83;;;7.50;;
8474;SDS011;4274;52.012;8.448;2024-02-15T09:17:55;45.83;;;7.40;;
8474;SDS011;4274;52.012;8.448;2024-02-15T09:20:22;45.00;;;6.90;;
8474;SDS011;4274;52.012;8.448;2024-02-15T09:22:53;47.77;;;7.73;;
8474;SDS011;4274;52.012;8.448;2024-02-15T09:25:20;53.43;;;6.77;;
8474;SDS011;4274;52.012;8.448;2024-02-15T09:27:49;49.63;;;7.53;;
8474;SDS011;4274;52.012;8.448;2024-02-15T09:30:16;51.00;;;8.00;;
8474;SDS011;4274;52.012;8.448;2024-02-15T09:32:43;49.43;;;7.97;;
8474;SDS011;4274;52.012;8.448;2024-02-15T09:35:10;46.70;;;8.07;;
8474;SDS011;4274;52.012;8.448;2024-02-15T09:37:43;50.47;;;8.53;;
8474;SDS011;4274;52.012;8.448;2024-02-15T09:40:15;50.90;;;8.30;;
8474;SDS011;4274;52.012;8.448;2024-02-15T09:42:43;48.40;;;9.90;;
8474;SDS011;4274;52.012;8.448;2024-02-15T09:45:10;54.05;;;9.30;;
8474;SDS011;4274;52.012;8.448;2024-02-15T09:47:40;54.87;;;11.07;;
8474;SDS011;4274;52.012;8.448;2024-02-15T09:50:06;55.87;;;9.13;;
8474;SDS011;4274;52.012;8.448;2024-02-15T09:52:32;53.50;;;9.37;;
8474;SDS011;4274;52.012;8.448;2024-02-15T09:55:02;66.37;;;8.83;;
8474;SDS011;4274;52.012;8.448;2024-02-15T09:57:28;50.00;;;8.23;;
8474;SDS011;4274;52.012;8.448;2024-02-15T09:59:56;45.90;;;6.63;;
8474;SDS011;4274;52.012;8.448;2024-02-15T10:02:22;47.67;;;7.10;;
8474;SDS011;4274;52.012;8.448;2024-02-15T10:04:49;46.47;;;7.10;;
8474;SDS011;4274;52.012;8.448;2024-02-15T10:07:15;50.93;;;7.20;;
8474;SDS011;4274;52.012;8.448;2024-02-15T10:09:43;47.90;;;7.00;;
8474;SDS011;4274;52.012;8.448;2024-02-15T10:12:08;49.43;;;6.60;;
8474;SDS011;4274;52.012;8.448;2024-02-15T10:14:35;45.63;;;6.17;;
8474;SDS011;4274;52.012;8.448;2024-02-15T10:17:07;50.07;;;7.53;;
8474;SDS011;4274;52.012;8.448;2024-02-15T10:19:36;45.60;;;6.60;;
8474;SDS011;4274;52.012;8.448;2024-02-15T10:22:06;52.40;;;6.73;;
8474;SDS011;4274;52.012;8.448;2024-02-15T10:24:32;51.03;;;7.40;;
8474;SDS011;4274;52.012;8.448;2024-02-15T10:27:01;45.80;;;7.33;;
8474;SDS011;4274;52.012;8.448;2024-02-15T10:29:35;45.70;;;6.87;;
8474;SDS011;4274;52.012;8.448;2024-02-15T10:32:02;49.90;;;7.03;;
8474;SDS011;4274;52.012;8.448;2024-02-15T10:34:29;48.13;;;6.53;;
8474;SDS011;4274;52.012;8.448;2024-02-15T10:37:17;48.27;;;7.17;;
8474;SDS011;4274;52.012;8.448;2024-02-15T10:39:42;49.83;;;7.10;;
8474;SDS011;4274;52.012;8.448;2024-02-15T10:42:08;54.43;;;7.87;;
8474;SDS011;4274;52.012;8.448;2024-02-15T10:44:36;52.00;;;6.97;;
8474;SDS011;4274;52.012;8.448;2024-02-15T10:47:03;50.07;;;6.70;;
8474;SDS011;4274;52.012;8.448;2024-02-15T10:49:32;53.03;;;7.03;;
8474;SDS011;4274;52.012;8.448;2024-02-15T10:51:59;46.50;;;6.57;;
8474;SDS011;4274;52.012;8.448;2024-02-15T10:57:28;46.03;;;7.00;;
8474;SDS011;4274;52.012;8.448;2024-02-15T10:59:58;51.17;;;7.17;;
8474;SDS011;4274;52.012;8.448;2024-02-15T11:02:38;44.57;;;6.50;;
8474;SDS011;4274;52.012;8.448;2024-02-15T11:05:11;50.80;;;8.77;;
8474;SDS011;4274;52.012;8.448;2024-02-15T11:07:39;55.63;;;8.13;;
8474;SDS011;4274;52.012;8.448;2024-02-15T11:10:06;47.40;;;7.27;;
8474;SDS011;4274;52.012;8.448;2024-02-15T11:12:35;48.73;;;6.80;;
8474;SDS011;4274;52.012;8.448;2024-02-15T11:15:02;51.47;;;7.27;;
8474;SDS011;4274;52.012;8.448;2024-02-15T11:20:08;52.73;;;7.83;;
8474;SDS011;4274;52.012;8.448;2024-02-15T11:22:39;45.10;;;7.30;;
8474;SDS011;4274;52.012;8.448;2024-02-15T11:25:07;45.80;;;6.57;;
8474;SDS011;4274;52.012;8.448;2024-02-15T11:27:40;55.83;;;6.90;;
8474;SDS011;4274;52.012;8.448;2024-02-15T11:30:06;46.10;;;5.60;;
8474;SDS011;4274;52.012;8.448;2024-02-15T11:35:19;47.60;;;6.33;;
8474;SDS011;4274;52.012;8.448;2024-02-15T11:42:52;55.92;;;8.15;;
8474;SDS011;4274;52.012;8.448;2024-02-15T11:45:19;50.37;;;8.50;;
8474;SDS011;4274;52.012;8.448;2024-02-15T11:47:48;50.50;;;7.67;;
8474;SDS011;4274;52.012;8.448;2024-02-15T11:50:15;53.77;;;9.30;;
8474;SDS011;4274;52.012;8.448;2024-02-15T11:52:45;51.97;;;6.57;;
8474;SDS011;4274;52.012;8.448;2024-02-15T11:55:21;47.40;;;7.30;;
8474;SDS011;4274;52.012;8.448;2024-02-15T11:58:00;52.10;;;8.30;;
8474;SDS011;4274;52.012;8.448;2024-02-15T12:00:34;47.93;;;6.43;;
8474;SDS011;4274;52.012;8.448;2024-02-15T12:03:22;54.27;;;7.73;;
8474;SDS011;4274;52.012;8.448;2024-02-15T12:06:07;42.83;;;5.50;;
8474;SDS011;4274;52.012;8.448;2024-02-15T12:08:52;46.10;;;5.60;;
8474;SDS011;4274;52.012;8.448;2024-02-15T12:11:37;40.20;;;4.70;;
8474;SDS011;4274;52.012;8.448;2024-02-15T12:14:21;42.87;;;4.50;;
8474;SDS011;4274;52.012;8.448;2024-02-15T12:17:09;43.10;;;4.60;;
8474;SDS011;4274;52.012;8.448;2024-02-15T12:19:54;42.80;;;4.43;;
8474;SDS011;4274;52.012;8.448;2024-02-15T12:24:58;42.73;;;3.87;;
8474;SDS011;4274;52.012;8.448;2024-02-15T12:27:25;45.97;;;5.10;;
8474;SDS011;4274;52.012;8.448;2024-02-15T12:29:58;45.70;;;3.93;;
8474;SDS011;4274;52.012;8.448;2024-02-15T12:32:24;42.90;;;3.97;;
8474;SDS011;4274;52.012;8.448;2024-02-15T12:34:51;43.30;;;4.10;;
8474;SDS011;4274;52.012;8.448;2024-02-15T12:37:18;46.83;;;4.00;;
8474;SDS011;4274;52.012;8.448;2024-02-15T12:39:45;40.90;;;4.40;;
8474;SDS011;4274;52.012;8.448;2024-02-15T12:42:12;45.33;;;5.07;;
8474;SDS011;4274;52.012;8.448;2024-02-15T12:44:42;41.60;;;4.47;;
8474;SDS011;4274;52.012;8.448;2024-02-15T12:47:16;40.87;;;4.00;;
8474;SDS011;4274;52.012;8.448;2024-02-15T12:49:47;43.07;;;3.90;;
8474;SDS011;4274;52.012;8.448;2024-02-15T12:57:42;45.37;;;3.73;;
8474;SDS011;4274;52.012;8.448;2024-02-15T13:00:11;40.17;;;4.00;;
8474;SDS011;4274;52.012;8.448;2024-02-15T13:02:43;45.25;;;3.60;;
8474;SDS011;4274;52.012;8.448;2024-02-15T13:05:14;44.17;;;3.57;;
8474;SDS011;4274;52.012;8.448;2024-02-15T13:07:43;39.90;;;3.60;;
8474;SDS011;4274;52.012;8.448;2024-02-15T13:10:09;40.13;;;3.40;;
8474;SDS011;4274;52.012;8.448;2024-02-15T13:12:35;41.50;;;3.90;;
8474;SDS011;4274;52.012;8.448;2024-02-15T13:15:03;47.10;;;3.57;;
8474;SDS011;4274;52.012;8.448;2024-02-15T13:17:31;45.80;;;4.03;;
8474;SDS011;4274;52.012;8.448;2024-02-15T13:19:58;40.30;;;3.50;;
8474;SDS011;4274;52.012;8.448;2024-02-15T13:22:31;41.47;;;4.80;;
8474;SDS011;4274;52.012;8.448;2024-02-15T13:24:57;45.13;;;3.77;;
8474;SDS011;4274;52.012;8.448;2024-02-15T13:27:23;43.17;;;3.80;;
8474;SDS011;4274;52.012;8.448;2024-02-15T13:29:52;42.33;;;3.40;;
8474;SDS011;4274;52.012;8.448;2024-02-15T13:32:18;46.40;;;4.07;;
8474;SDS011;4274;52.012;8.448;2024-02-15T13:34:46;40.00;;;3.77;;
8474;SDS011;4274;52.012;8.448;2024-02-15T13:37:21;46.00;;;4.10;;
8474;SDS011;4274;52.012;8.448;2024-02-15T13:39:48;43.00;;;3.70;;
8474;SDS011;4274;52.012;8.448;2024-02-15T13:42:14;45.47;;;4.00;;
8474;SDS011;4274;52.012;8.448;2024-02-15T13:44:40;44.13;;;3.87;;
8474;SDS011;4274;52.012;8.448;2024-02-15T13:47:06;40.67;;;3.60;;
8474;SDS011;4274;52.012;8.448;2024-02-15T13:49:31;44.73;;;4.80;;
8474;SDS011;4274;52.012;8.448;2024-02-15T13:51:59;44.00;;;3.97;;
8474;SDS011;4274;52.012;8.448;2024-02-15T13:54:28;43.50;;;3.80;;
8474;SDS011;4274;52.012;8.448;2024-02-15T13:56:54;43.30;;;4.03;;
8474;SDS011;4274;52.012;8.448;2024-02-15T13:59:22;44.07;;;4.20;;
8474;SDS011;4274;52.012;8.448;2024-02-15T14:01:51;40.50;;;3.57;;
8474;SDS011;4274;52.012;8.448;2024-02-15T14:04:18;48.07;;;4.07;;
8474;SDS011;4274;52.012;8.448;2024-02-15T14:06:44;50.30;;;3.97;;
8474;SDS011;4274;52.012;8.448;2024-02-15T14:09:10;42.70;;;3.77;;
8474;SDS011;4274;52.012;8.448;2024-02-15T14:11:38;41.30;;;3.70;;
8474;SDS011;4274;52.012;8.448;2024-02-15T14:14:05;46.80;;;3.93;;
8474;SDS011;4274;52.012;8.448;2024-02-15T14:16:31;40.90;;;3.37;;
8474;SDS011;4274;52.012;8.448;2024-02-15T14:18:58;44.43;;;3.60;;
8474;SDS011;4274;52.012;8.448;2024-02-15T14:21:24;42.00;;;3.77;;
8474;SDS011;4274;52.012;8.448;2024-02-15T14:23:50;41.30;;;3.30;;
8474;SDS011;4274;52.012;8.448;2024-02-15T14:26:16;42.87;;;3.80;;
8474;SDS011;4274;52.012;8.448;2024-02-15T14:28:42;40.77;;;3.10;;
8474;SDS011;4274;52.012;8.448;2024-02-15T14:31:10;41.80;;;3.37;;
8474;SDS011;4274;52.012;8.448;2024-02-15T14:34:14;41.17;;;3.30;;
8474;SDS011;4274;52.012;8.448;2024-02-15T14:36:40;42.53;;;3.20;;
8474;SDS011;4274;52.012;8.448;2024-02-15T14:39:07;45.07;;;3.30;;
8474;SDS011;4274;52.012;8.448;2024-02-15T14:41:34;42.87;;;4.50;;
8474;SDS011;4274;52.012;8.448;2024-02-15T14:44:00;40.33;;;3.50;;
8474;SDS011;4274;52.012;8.448;2024-02-15T14:46:25;44.37;;;3.30;;
8474;SDS011;4274;52.012;8.448;2024-02-15T14:48:52;48.23;;;3.30;;
8474;SDS011;4274;52.012;8.448;2024-02-15T14:51:19;46.07;;;3.57;;
8474;SDS011;4274;52.012;8.448;2024-02-15T14:53:45;41.17;;;3.77;;
8474;SDS011;4274;52.012;8.448;2024-02-15T14:56:10;46.00;;;3.77;;
8474;SDS011;4274;52.012;8.448;2024-02-15T14:58:36;43.87;;;3.17;;
8474;SDS011;4274;52.012;8.448;2024-02-15T15:01:01;40.73;;;2.90;;
8474;SDS011;4274;52.012;8.448;2024-02-15T15:03:30;42.07;;;3.40;;
8474;SDS011;4274;52.012;8.448;2024-02-15T15:06:02;42.90;;;3.27;;
8474;SDS011;4274;52.012;8.448;2024-02-15T15:08:47;44.53;;;3.13;;
8474;SDS011;4274;52.012;8.448;2024-02-15T15:11:31;45.83;;;3.57;;
8474;SDS011;4274;52.012;8.448;2024-02-15T15:14:15;43.83;;;3.80;;
8474;SDS011;4274;52.012;8.448;2024-02-15T15:16:42;42.60;;;3.57;;
8474;SDS011;4274;52.012;8.448;2024-02-15T15:19:08;40.40;;;2.87;;